createdAt,value
2019-05-18T00:00:48.490Z,15.40
2019-05-18T00:03:19.471Z,15.50
2019-05-18T00:05:50.490Z,15.40
2019-05-18T00:08:21.281Z,15.30
2019-05-18T00:10:52.200Z,15.20
2019-05-18T00:13:22.741Z,15.20
2019-05-18T00:15:53.372Z,15.20
2019-05-18T00:18:24.388Z,15.10
2019-05-18T00:20:54.992Z,15.10
2019-05-18T00:23:25.812Z,15.10
2019-05-18T00:25:56.408Z,15.20
2019-05-18T00:28:27.070Z,15.10
2019-05-18T00:31:00.766Z,15.10
2019-05-18T00:33:31.836Z,15.10
2019-05-18T00:36:02.552Z,15.20
2019-05-18T00:38:33.223Z,15.10
2019-05-18T00:41:03.716Z,15.10
2019-05-18T00:43:34.250Z,15.00
2019-05-18T00:46:05.349Z,15.00
2019-05-18T00:48:37.111Z,15.00
2019-05-18T00:51:07.605Z,15.00
2019-05-18T00:53:38.605Z,14.90
2019-05-18T00:56:09.060Z,14.90
2019-05-18T00:58:39.645Z,14.80
2019-05-18T01:01:10.312Z,14.80
2019-05-18T01:03:40.982Z,14.80
2019-05-18T01:06:11.887Z,14.70
2019-05-18T01:08:43.022Z,14.70
2019-05-18T01:11:13.692Z,14.70
2019-05-18T01:13:44.449Z,14.60
2019-05-18T01:16:15.337Z,14.60
2019-05-18T01:18:45.777Z,14.60
2019-05-18T01:21:17.414Z,14.60
2019-05-18T01:23:48.414Z,14.60
2019-05-18T01:26:18.960Z,14.60
2019-05-18T01:28:49.452Z,14.60
2019-05-18T01:31:20.158Z,14.60
2019-05-18T01:33:50.757Z,14.60
2019-05-18T01:36:21.486Z,14.50
2019-05-18T01:38:52.110Z,14.50
2019-05-18T01:41:23.011Z,14.40
2019-05-18T01:43:53.726Z,14.30
2019-05-18T01:46:24.148Z,14.40
2019-05-18T01:48:54.720Z,14.40
2019-05-18T01:51:25.540Z,14.40
2019-05-18T01:53:56.190Z,14.30
2019-05-18T01:56:26.869Z,14.40
2019-05-18T01:58:57.527Z,14.50
2019-05-18T02:01:27.986Z,14.50
2019-05-18T02:04:01.322Z,14.40
2019-05-18T02:06:31.840Z,14.40
2019-05-18T02:09:02.494Z,14.40
2019-05-18T02:11:33.446Z,14.40
2019-05-18T02:14:04.639Z,14.40
2019-05-18T02:16:35.304Z,14.40
2019-05-18T02:19:05.764Z,14.30
2019-05-18T02:21:36.369Z,14.30
2019-05-18T02:24:07.167Z,14.30
2019-05-18T02:26:37.803Z,14.30
2019-05-18T02:29:08.583Z,14.30
2019-05-18T02:31:39.183Z,14.30
2019-05-18T02:34:09.859Z,14.30
2019-05-18T02:36:40.872Z,14.30
2019-05-18T02:39:12.560Z,14.30
2019-05-18T02:41:43.294Z,14.30
2019-05-18T02:44:14.341Z,14.40
2019-05-18T02:46:46.391Z,14.30
2019-05-18T02:49:17.000Z,14.30
2019-05-18T02:51:47.886Z,14.40
2019-05-18T02:54:18.436Z,14.40
2019-05-18T02:56:49.131Z,14.30
2019-05-18T02:59:19.974Z,14.30
2019-05-18T03:01:53.097Z,14.30
2019-05-18T03:04:23.968Z,14.30
2019-05-18T03:06:55.063Z,14.30
2019-05-18T03:09:27.622Z,14.30
2019-05-18T03:11:58.580Z,14.40
2019-05-18T03:14:29.613Z,14.40
2019-05-18T03:17:00.776Z,14.40
2019-05-18T03:19:31.403Z,14.40
2019-05-18T03:22:02.129Z,14.40
2019-05-18T03:24:33.029Z,14.40
2019-05-18T03:27:03.962Z,14.50
2019-05-18T03:29:34.807Z,14.50
2019-05-18T03:32:05.873Z,14.50
2019-05-18T03:34:36.359Z,14.60
2019-05-18T03:37:07.077Z,14.70
2019-05-18T03:39:37.607Z,14.70
2019-05-18T03:42:08.107Z,14.70
2019-05-18T03:44:38.571Z,14.70
2019-05-18T03:47:10.439Z,14.70
2019-05-18T03:49:41.207Z,14.80
2019-05-18T03:52:11.983Z,14.80
2019-05-18T03:54:42.475Z,14.90
2019-05-18T03:57:13.438Z,15.10
2019-05-18T03:59:44.092Z,15.10
2019-05-18T04:02:14.848Z,15.20
2019-05-18T04:04:45.782Z,15.30
2019-05-18T04:07:16.464Z,15.40
2019-05-18T04:09:48.369Z,15.40
2019-05-18T04:12:18.880Z,15.50
2019-05-18T04:14:49.510Z,15.50
2019-05-18T04:17:20.222Z,15.60
2019-05-18T04:19:51.132Z,15.60
2019-05-18T04:22:21.966Z,15.60
2019-05-18T04:24:52.753Z,15.60
2019-05-18T04:27:23.494Z,15.70
2019-05-18T04:29:54.299Z,15.70
2019-05-18T04:32:24.951Z,15.70
2019-05-18T04:34:55.675Z,15.70
2019-05-18T04:37:26.400Z,15.70
2019-05-18T04:39:58.805Z,15.70
2019-05-18T04:42:29.408Z,15.60
2019-05-18T04:44:59.903Z,15.60
2019-05-18T04:47:30.431Z,15.60
2019-05-18T04:50:05.821Z,15.60
2019-05-18T04:52:33.602Z,15.70
2019-05-18T04:55:04.573Z,15.70
2019-05-18T04:57:35.320Z,15.70
2019-05-18T05:00:09.389Z,15.60
2019-05-18T05:02:40.234Z,15.50
2019-05-18T05:05:10.923Z,15.40
2019-05-18T05:07:41.498Z,15.40
2019-05-18T05:10:12.616Z,15.40
2019-05-18T05:12:43.521Z,15.40
2019-05-18T05:15:14.208Z,15.50
2019-05-18T05:17:44.816Z,15.60
2019-05-18T05:20:19.832Z,15.70
2019-05-18T05:22:47.590Z,15.70
2019-05-18T05:25:18.262Z,15.50
2019-05-18T05:27:48.890Z,15.40
2019-05-18T05:30:19.911Z,15.30
2019-05-18T05:32:51.256Z,15.20
2019-05-18T05:35:24.066Z,15.10
2019-05-18T05:37:54.628Z,15.10
2019-05-18T05:40:25.239Z,15.10
2019-05-18T05:42:55.784Z,15.10
2019-05-18T05:45:26.593Z,15.10
2019-05-18T05:47:57.325Z,15.00
2019-05-18T05:50:35.877Z,15.00
2019-05-18T05:53:00.511Z,14.90
2019-05-18T05:55:31.271Z,15.00
2019-05-18T05:58:02.189Z,14.90
2019-05-18T06:00:32.943Z,15.00
2019-05-18T06:03:03.362Z,14.90
2019-05-18T06:05:34.578Z,14.90
2019-05-18T06:08:05.182Z,14.80
2019-05-18T06:10:35.852Z,14.90
2019-05-18T06:13:06.754Z,14.80
2019-05-18T06:15:37.441Z,14.90
2019-05-18T06:18:08.027Z,15.00
2019-05-18T06:20:50.876Z,15.00
2019-05-18T06:23:10.907Z,15.00
2019-05-18T06:25:41.513Z,15.00
2019-05-18T06:28:12.413Z,15.00
2019-05-18T06:30:44.151Z,15.10
2019-05-18T06:33:15.807Z,15.10
2019-05-18T06:35:46.725Z,15.10
2019-05-18T06:38:17.221Z,15.10
2019-05-18T06:40:47.789Z,15.10
2019-05-18T06:43:18.342Z,15.20
2019-05-18T06:45:49.199Z,15.30
2019-05-18T06:48:20.063Z,15.40
2019-05-18T06:51:05.982Z,15.50
2019-05-18T06:53:23.672Z,15.50
2019-05-18T06:55:55.825Z,15.60
2019-05-18T06:58:28.424Z,15.60
2019-05-18T07:00:58.982Z,15.70
2019-05-18T07:03:29.522Z,15.70
2019-05-18T07:06:00.980Z,15.70
2019-05-18T07:08:31.360Z,15.70
2019-05-18T07:11:01.976Z,15.70
2019-05-18T07:13:32.540Z,15.80
2019-05-18T07:16:03.053Z,15.90
2019-05-18T07:18:33.631Z,16.00
2019-05-18T07:21:04.128Z,16.10
2019-05-18T07:23:34.562Z,16.20
2019-05-18T07:26:05.073Z,16.40
2019-05-18T07:28:35.823Z,16.50
2019-05-18T07:31:06.360Z,16.50
2019-05-18T07:33:36.930Z,16.40
2019-05-18T07:36:07.460Z,16.40
2019-05-18T07:38:38.138Z,16.40
2019-05-18T07:41:08.560Z,16.30
2019-05-18T07:43:39.235Z,16.30
2019-05-18T07:46:09.830Z,16.20
2019-05-18T07:48:40.897Z,16.20
2019-05-18T07:51:11.459Z,16.20
2019-05-18T07:53:42.052Z,16.20
2019-05-18T07:56:12.778Z,16.20
2019-05-18T07:58:43.236Z,16.20
2019-05-18T08:01:13.648Z,16.20
2019-05-18T08:03:44.097Z,16.20
2019-05-18T08:06:14.897Z,16.20
2019-05-18T08:08:45.478Z,16.30
2019-05-18T08:11:16.991Z,16.30
2019-05-18T08:13:47.531Z,16.30
2019-05-18T08:16:18.039Z,16.20
2019-05-18T08:18:48.471Z,16.10
2019-05-18T08:21:19.008Z,16.00
2019-05-18T08:23:49.429Z,16.00
2019-05-18T08:26:54.933Z,16.00
2019-05-18T08:29:25.466Z,16.00
2019-05-18T08:31:56.045Z,16.00
2019-05-18T08:34:26.489Z,16.00
2019-05-18T08:36:57.013Z,15.90
2019-05-18T08:39:27.543Z,15.90
2019-05-18T08:41:58.015Z,15.90
2019-05-18T08:44:28.376Z,16.00
2019-05-18T08:46:58.822Z,16.00
2019-05-18T08:49:29.315Z,16.10
2019-05-18T08:52:07.882Z,16.20
2019-05-18T08:54:31.816Z,16.40
2019-05-18T08:57:02.277Z,16.50
2019-05-18T08:59:32.726Z,16.70
2019-05-18T09:02:03.175Z,16.80
2019-05-18T09:04:33.624Z,16.90
2019-05-18T09:07:04.136Z,16.90
2019-05-18T09:09:34.720Z,17.10
2019-05-18T09:12:05.252Z,17.30
2019-05-18T09:14:35.810Z,17.40
2019-05-18T09:17:06.216Z,17.70
2019-05-18T09:19:36.704Z,18.00
2019-05-18T09:22:07.265Z,18.40
2019-05-18T09:24:37.805Z,18.60
2019-05-18T09:27:08.202Z,18.80
2019-05-18T09:29:38.703Z,19.00
2019-05-18T09:32:09.271Z,19.10
2019-05-18T09:34:39.666Z,19.30
2019-05-18T09:37:10.060Z,19.40
2019-05-18T09:39:40.466Z,19.60
2019-05-18T09:42:10.984Z,19.70
2019-05-18T09:44:41.416Z,19.70
2019-05-18T09:47:11.989Z,19.70
2019-05-18T09:49:42.601Z,19.90
2019-05-18T09:52:13.233Z,20.10
2019-05-18T09:54:43.649Z,20.30
2019-05-18T09:57:14.417Z,20.40
2019-05-18T09:59:44.933Z,20.50
2019-05-18T10:02:16.027Z,20.50
2019-05-18T10:04:47.427Z,20.60
2019-05-18T10:07:18.064Z,20.80
2019-05-18T10:09:48.648Z,21.00
2019-05-18T10:12:39.213Z,21.20
2019-05-18T10:15:10.116Z,21.40
2019-05-18T10:17:40.733Z,21.50
2019-05-18T10:20:12.674Z,21.50
2019-05-18T10:22:55.526Z,21.80
2019-05-18T10:25:15.229Z,22.00
2019-05-18T10:27:46.054Z,22.00
2019-05-18T10:30:16.575Z,22.10
2019-05-18T10:32:47.047Z,22.30
2019-05-18T10:35:17.571Z,22.50
2019-05-18T10:37:47.952Z,22.50
2019-05-18T10:40:19.946Z,22.40
2019-05-18T10:42:50.442Z,22.60
2019-05-18T10:45:20.967Z,22.70
2019-05-18T10:47:51.426Z,22.80
2019-05-18T10:50:22.184Z,22.80
2019-05-18T10:52:52.788Z,22.60
2019-05-18T10:55:23.291Z,22.50
2019-05-18T10:57:53.866Z,22.60
2019-05-18T11:00:24.685Z,22.80
2019-05-18T11:02:55.276Z,23.00
2019-05-18T11:05:25.634Z,22.90
2019-05-18T11:07:56.406Z,23.00
2019-05-18T11:10:28.229Z,22.80
2019-05-18T11:12:58.760Z,22.70
2019-05-18T11:15:30.046Z,22.80
2019-05-18T11:18:00.423Z,23.00
2019-05-18T11:20:30.835Z,23.30
2019-05-18T11:23:01.235Z,23.40
2019-05-18T11:25:32.715Z,23.50
2019-05-18T11:28:03.121Z,23.70
2019-05-18T11:30:33.653Z,24.10
2019-05-18T11:33:04.218Z,24.20
2019-05-18T11:35:35.201Z,24.40
2019-05-18T11:38:05.612Z,24.50
2019-05-18T11:40:36.393Z,24.80
2019-05-18T11:43:07.857Z,25.10
2019-05-18T11:45:38.289Z,25.10
2019-05-18T11:48:08.845Z,25.00
2019-05-18T11:50:39.331Z,24.80
2019-05-18T11:53:09.795Z,24.80
2019-05-18T11:55:40.255Z,25.00
2019-05-18T11:58:10.713Z,25.20
2019-05-18T12:00:41.429Z,25.50
2019-05-18T12:03:11.928Z,25.60
2019-05-18T12:05:42.434Z,25.60
2019-05-18T12:08:14.257Z,25.40
2019-05-18T12:10:44.817Z,26.10
2019-05-18T12:13:15.565Z,26.60
2019-05-18T12:15:46.239Z,27.70
2019-05-18T12:18:17.029Z,28.40
2019-05-18T12:20:47.636Z,28.60
2019-05-18T12:23:18.372Z,29.50
2019-05-18T12:25:50.743Z,30.80
2019-05-18T12:28:21.080Z,33.10
2019-05-18T12:30:51.506Z,34.90
2019-05-18T12:33:22.180Z,36.50
2019-05-18T12:35:52.798Z,37.60
2019-05-18T12:38:23.541Z,37.50
2019-05-18T12:40:54.679Z,36.90
2019-05-18T12:43:25.458Z,35.40
2019-05-18T12:45:55.878Z,34.10
2019-05-18T12:48:26.366Z,32.80
2019-05-18T12:50:57.121Z,32.50
2019-05-18T12:53:27.543Z,33.60
2019-05-18T12:55:57.988Z,35.30
2019-05-18T12:58:28.663Z,35.90
2019-05-18T13:00:59.451Z,35.70
2019-05-18T13:03:30.279Z,34.60
2019-05-18T13:06:00.832Z,33.40
2019-05-18T13:08:31.742Z,32.20
2019-05-18T13:11:14.568Z,31.40
2019-05-18T13:13:45.219Z,30.60
2019-05-18T13:16:15.934Z,29.80
2019-05-18T13:18:46.359Z,30.40
2019-05-18T13:21:16.872Z,32.60
2019-05-18T13:23:47.459Z,35.20
2019-05-18T13:26:17.832Z,37.40
2019-05-18T13:28:48.487Z,39.40
2019-05-18T13:31:19.059Z,39.20
2019-05-18T13:33:49.508Z,38.30
2019-05-18T13:36:21.509Z,37.50
2019-05-18T13:38:52.053Z,37.20
2019-05-18T13:41:22.864Z,36.70
2019-05-18T13:43:53.598Z,35.70
2019-05-18T13:46:24.166Z,34.60
2019-05-18T13:48:54.672Z,35.20
2019-05-18T13:51:25.101Z,36.70
2019-05-18T13:53:55.630Z,36.90
2019-05-18T13:56:26.166Z,36.30
2019-05-18T13:58:56.663Z,36.60
2019-05-18T14:01:27.196Z,37.20
2019-05-18T14:03:58.234Z,38.80
2019-05-18T14:06:28.781Z,39.30
2019-05-18T14:08:59.141Z,40.10
2019-05-18T14:11:30.168Z,41.50
2019-05-18T14:14:01.935Z,41.90
2019-05-18T14:16:32.538Z,42.20
2019-05-18T14:19:03.116Z,43.20
2019-05-18T14:21:33.910Z,44.30
2019-05-18T14:24:04.616Z,44.90
2019-05-18T14:26:35.131Z,44.50
2019-05-18T14:29:05.745Z,44.70
2019-05-18T14:31:36.391Z,44.50
2019-05-18T14:34:07.305Z,44.80
2019-05-18T14:36:37.830Z,45.00
2019-05-18T14:39:08.701Z,44.80
2019-05-18T14:41:42.356Z,44.80
2019-05-18T14:44:11.461Z,45.00
2019-05-18T14:46:41.907Z,44.60
2019-05-18T14:49:12.739Z,44.60
2019-05-18T14:51:43.213Z,44.70
2019-05-18T14:54:14.218Z,44.50
2019-05-18T14:56:44.863Z,43.90
2019-05-18T14:59:16.452Z,43.20
2019-05-18T15:01:47.702Z,43.20
2019-05-18T15:04:18.148Z,42.00
2019-05-18T15:06:48.919Z,40.60
2019-05-18T15:09:19.808Z,40.20
2019-05-18T15:11:50.538Z,38.00
2019-05-18T15:14:21.171Z,36.00
2019-05-18T15:16:53.044Z,34.90
2019-05-18T15:19:23.801Z,34.10
2019-05-18T15:21:54.412Z,34.40
2019-05-18T15:24:28.572Z,35.20
2019-05-18T15:26:59.207Z,35.20
2019-05-18T15:29:30.848Z,34.90
2019-05-18T15:32:01.396Z,33.90
2019-05-18T15:34:31.997Z,33.30
2019-05-18T15:37:02.724Z,33.50
2019-05-18T15:39:33.462Z,33.50
2019-05-18T15:42:04.163Z,32.60
2019-05-18T15:44:36.128Z,31.00
2019-05-18T15:47:06.872Z,29.50
2019-05-18T15:49:37.364Z,28.70
2019-05-18T15:52:08.206Z,27.60
2019-05-18T15:54:38.803Z,27.00
2019-05-18T15:57:09.348Z,27.20
2019-05-18T15:59:39.961Z,28.00
2019-05-18T16:02:10.582Z,28.60
2019-05-18T16:04:41.165Z,29.50
2019-05-18T16:07:12.553Z,30.50
2019-05-18T16:09:43.555Z,31.20
2019-05-18T16:12:15.044Z,31.40
2019-05-18T16:14:46.771Z,31.50
2019-05-18T16:17:17.449Z,31.60
2019-05-18T16:19:48.162Z,31.80
2019-05-18T16:22:18.788Z,31.50
2019-05-18T16:24:49.526Z,31.20
2019-05-18T16:27:20.410Z,30.90
2019-05-18T16:29:50.868Z,30.90
2019-05-18T16:32:21.279Z,30.30
2019-05-18T16:34:52.058Z,29.60
2019-05-18T16:37:22.593Z,29.10
2019-05-18T16:39:54.161Z,28.50
2019-05-18T16:42:24.650Z,27.60
2019-05-18T16:44:55.075Z,26.90
2019-05-18T16:47:25.779Z,26.40
2019-05-18T16:49:56.248Z,26.00
2019-05-18T16:52:26.822Z,25.90
2019-05-18T16:54:57.654Z,25.40
2019-05-18T16:57:28.102Z,25.20
2019-05-18T16:59:58.929Z,24.90
2019-05-18T17:02:31.916Z,24.70
2019-05-18T17:05:01.492Z,24.20
2019-05-18T17:07:32.148Z,23.80
2019-05-18T17:10:02.691Z,23.60
2019-05-18T17:12:33.302Z,23.40
2019-05-18T17:15:04.288Z,23.30
2019-05-18T17:17:35.597Z,23.30
2019-05-18T17:20:06.662Z,23.30
2019-05-18T17:22:37.374Z,23.00
2019-05-18T17:25:08.033Z,22.70
2019-05-18T17:27:38.851Z,22.70
2019-05-18T17:30:09.931Z,22.70
2019-05-18T17:32:40.424Z,22.60
2019-05-18T17:35:11.370Z,22.60
2019-05-18T17:37:42.059Z,22.60
2019-05-18T17:40:13.161Z,22.50
2019-05-18T17:42:43.902Z,22.50
2019-05-18T17:45:14.391Z,22.50
2019-05-18T17:47:45.233Z,22.40
2019-05-18T17:50:15.948Z,22.20
2019-05-18T17:52:46.928Z,22.00
2019-05-18T17:55:17.838Z,21.80
2019-05-18T17:57:48.383Z,21.70
2019-05-18T18:00:19.444Z,21.60
2019-05-18T18:02:50.251Z,21.40
2019-05-18T18:05:20.943Z,21.40
2019-05-18T18:07:55.441Z,21.30
2019-05-18T18:10:25.952Z,21.30
2019-05-18T18:12:56.464Z,21.20
2019-05-18T18:15:27.407Z,21.30
2019-05-18T18:17:58.208Z,21.30
2019-05-18T18:20:28.714Z,21.20
2019-05-18T18:22:59.383Z,21.10
2019-05-18T18:25:29.852Z,21.10
2019-05-18T18:28:00.530Z,21.10
2019-05-18T18:30:31.250Z,20.90
2019-05-18T18:33:01.872Z,20.80
2019-05-18T18:35:32.604Z,20.70
2019-05-18T18:38:03.890Z,20.60
2019-05-18T18:40:34.730Z,20.60
2019-05-18T18:43:05.493Z,20.50
2019-05-18T18:45:36.371Z,20.50
2019-05-18T18:48:07.723Z,20.50
2019-05-18T18:50:39.641Z,20.50
2019-05-18T18:53:10.595Z,20.50
2019-05-18T18:55:41.547Z,20.50
2019-05-18T18:58:12.238Z,20.40
2019-05-18T19:00:42.656Z,20.40
2019-05-18T19:03:13.525Z,20.40
2019-05-18T19:05:43.949Z,20.40
2019-05-18T19:08:14.858Z,20.50
2019-05-18T19:10:45.350Z,20.50
2019-05-18T19:13:16.094Z,20.50
2019-05-18T19:15:46.873Z,20.50
2019-05-18T19:18:17.480Z,20.50
2019-05-18T19:20:47.842Z,20.40
2019-05-18T19:23:18.628Z,20.50
2019-05-18T19:25:49.475Z,20.40
2019-05-18T19:28:20.425Z,20.30
2019-05-18T19:30:50.863Z,20.20
2019-05-18T19:33:21.786Z,20.10
2019-05-18T19:35:52.565Z,20.10
2019-05-18T19:38:24.109Z,20.00
2019-05-18T19:40:54.739Z,20.00
2019-05-18T19:43:25.399Z,19.90
2019-05-18T19:45:55.845Z,19.80
2019-05-18T19:48:26.300Z,19.80
2019-05-18T19:50:57.062Z,19.80
2019-05-18T19:53:28.666Z,19.80
2019-05-18T19:55:59.478Z,19.70
2019-05-18T19:58:31.969Z,19.70
2019-05-18T20:01:03.444Z,19.70
2019-05-18T20:03:34.116Z,19.60
2019-05-18T20:06:05.152Z,19.60
2019-05-18T20:08:36.193Z,19.50
2019-05-18T20:11:06.830Z,19.50
2019-05-18T20:13:38.207Z,19.50
2019-05-18T20:16:08.698Z,19.50
2019-05-18T20:18:39.472Z,19.40
2019-05-18T20:21:10.180Z,19.30
2019-05-18T20:23:40.789Z,19.20
2019-05-18T20:26:11.499Z,19.20
2019-05-18T20:28:42.035Z,19.10
2019-05-18T20:31:12.724Z,19.10
2019-05-18T20:33:43.491Z,19.00
2019-05-18T20:36:14.256Z,19.00
2019-05-18T20:38:44.757Z,19.10
2019-05-18T20:41:15.377Z,19.00
2019-05-18T20:43:46.767Z,19.00
2019-05-18T20:46:17.196Z,18.90
2019-05-18T20:48:49.050Z,18.80
2019-05-18T20:51:19.845Z,18.80
2019-05-18T20:53:50.691Z,18.80
2019-05-18T20:56:21.703Z,18.90
2019-05-18T20:58:52.338Z,18.90
2019-05-18T21:01:23.194Z,18.90
2019-05-18T21:03:53.977Z,18.90
2019-05-18T21:06:24.585Z,18.90
2019-05-18T21:08:55.077Z,18.90
2019-05-18T21:11:25.641Z,18.80
2019-05-18T21:13:57.894Z,18.90
2019-05-18T21:16:28.558Z,18.90
2019-05-18T21:18:59.124Z,18.90
2019-05-18T21:21:29.669Z,18.90
2019-05-18T21:24:00.675Z,19.00
2019-05-18T21:26:31.153Z,19.10
2019-05-18T21:29:01.884Z,19.10
2019-05-18T21:31:32.532Z,19.10
2019-05-18T21:34:03.127Z,19.00
2019-05-18T21:36:33.554Z,18.90
2019-05-18T21:39:06.748Z,18.90
2019-05-18T21:41:37.422Z,18.90
2019-05-18T21:44:08.000Z,18.90
2019-05-18T21:46:39.164Z,18.90
2019-05-18T21:49:11.085Z,18.80
2019-05-18T21:51:41.656Z,18.80
2019-05-18T21:54:12.508Z,18.70
2019-05-18T21:56:42.909Z,18.80
2019-05-18T21:59:13.735Z,18.70
2019-05-18T22:01:44.298Z,18.70
2019-05-18T22:04:14.806Z,18.70
2019-05-18T22:06:45.522Z,18.70
2019-05-18T22:09:15.987Z,18.80
2019-05-18T22:11:46.430Z,18.70
2019-05-18T22:14:17.102Z,18.70
2019-05-18T22:16:47.735Z,18.70
2019-05-18T22:19:18.671Z,18.80
2019-05-18T22:21:49.466Z,18.80
2019-05-18T22:24:21.129Z,18.80
2019-05-18T22:26:51.851Z,18.80
2019-05-18T22:29:22.746Z,18.70
2019-05-18T22:31:53.806Z,18.60
2019-05-18T22:34:24.180Z,18.60
2019-05-18T22:36:54.855Z,18.60
2019-05-18T22:39:26.691Z,18.60
2019-05-18T22:41:57.491Z,18.50
2019-05-18T22:44:28.109Z,18.60
2019-05-18T22:46:58.682Z,18.80
2019-05-18T22:49:29.620Z,18.80
2019-05-18T22:52:00.252Z,18.90
2019-05-18T22:54:31.019Z,19.00
2019-05-18T22:57:01.622Z,18.80
2019-05-18T22:59:32.148Z,18.60
2019-05-18T23:02:02.782Z,18.60
2019-05-18T23:04:33.279Z,18.70
2019-05-18T23:07:03.979Z,18.70
2019-05-18T23:09:34.850Z,18.60
2019-05-18T23:12:05.613Z,18.70
2019-05-18T23:14:36.319Z,18.70
2019-05-18T23:17:06.851Z,18.70
2019-05-18T23:19:37.236Z,18.80
2019-05-18T23:22:08.056Z,18.70
2019-05-18T23:24:39.007Z,18.60
2019-05-18T23:27:09.402Z,18.50
2019-05-18T23:29:39.942Z,18.50
2019-05-18T23:32:10.783Z,18.50
2019-05-18T23:34:41.228Z,18.40
2019-05-18T23:37:11.671Z,18.40
2019-05-18T23:39:42.491Z,18.40
2019-05-18T23:42:13.051Z,18.30
2019-05-18T23:44:43.725Z,18.20
2019-05-18T23:47:14.329Z,18.20
2019-05-18T23:49:45.115Z,18.10
2019-05-18T23:52:15.538Z,18.10
2019-05-18T23:54:46.235Z,18.10
2019-05-18T23:57:17.866Z,18.10
2019-05-18T23:59:48.537Z,17.90
